createdAt,value
2022-10-19T00:00:15.258Z,610.00
2022-10-19T00:00:45.292Z,609.00
2022-10-19T00:01:15.305Z,608.00
2022-10-19T00:01:45.428Z,608.00
2022-10-19T00:02:15.499Z,608.00
2022-10-19T00:02:45.554Z,609.00
2022-10-19T00:03:18.290Z,608.00
2022-10-19T00:03:45.665Z,617.00
2022-10-19T00:04:15.671Z,613.00
2022-10-19T00:04:45.695Z,617.00
2022-10-19T00:05:15.718Z,616.00
2022-10-19T00:05:45.742Z,617.00
2022-10-19T00:06:15.774Z,617.00
2022-10-19T00:06:45.792Z,613.00
2022-10-19T00:07:15.817Z,613.00
2022-10-19T00:07:45.844Z,613.00
2022-10-19T00:08:15.867Z,615.00
2022-10-19T00:08:45.894Z,615.00
2022-10-19T00:09:15.916Z,613.00
2022-10-19T00:09:45.944Z,616.00
2022-10-19T00:10:15.963Z,618.00
2022-10-19T00:10:46.011Z,618.00
2022-10-19T00:11:16.015Z,618.00
2022-10-19T00:11:46.038Z,617.00
2022-10-19T00:12:16.059Z,614.00
2022-10-19T00:12:46.083Z,614.00
2022-10-19T00:13:16.101Z,612.00
2022-10-19T00:13:46.117Z,613.00
2022-10-19T00:14:16.139Z,615.00
2022-10-19T00:14:46.156Z,616.00
2022-10-19T00:15:16.171Z,617.00
2022-10-19T00:15:46.194Z,617.00
2022-10-19T00:16:16.218Z,617.00
2022-10-19T00:16:46.237Z,615.00
2022-10-19T00:17:16.263Z,611.00
2022-10-19T00:17:46.290Z,613.00
2022-10-19T00:18:16.308Z,614.00
2022-10-19T00:18:46.332Z,613.00
2022-10-19T00:19:16.357Z,610.00
2022-10-19T00:19:46.381Z,613.00
2022-10-19T00:20:16.405Z,613.00
2022-10-19T00:20:46.425Z,613.00
2022-10-19T00:21:16.444Z,613.00
2022-10-19T00:21:46.530Z,615.00
2022-10-19T00:22:16.552Z,613.00
2022-10-19T00:22:46.582Z,612.00
2022-10-19T00:23:16.627Z,615.00
2022-10-19T00:23:46.651Z,614.00
2022-10-19T00:24:16.672Z,612.00
2022-10-19T00:24:46.698Z,612.00
2022-10-19T00:25:16.719Z,614.00
2022-10-19T00:25:46.736Z,613.00
2022-10-19T00:26:16.775Z,610.00
2022-10-19T00:26:46.774Z,611.00
2022-10-19T00:27:16.790Z,610.00
2022-10-19T00:27:46.827Z,608.00
2022-10-19T00:28:16.840Z,608.00
2022-10-19T00:28:46.992Z,608.00
2022-10-19T00:29:16.882Z,607.00
2022-10-19T00:29:46.904Z,608.00
2022-10-19T00:30:16.924Z,610.00
2022-10-19T00:30:46.946Z,610.00
2022-10-19T00:31:16.971Z,611.00
2022-10-19T00:31:47.004Z,612.00
2022-10-19T00:32:17.020Z,611.00
2022-10-19T00:32:47.049Z,609.00
2022-10-19T00:33:17.076Z,609.00
2022-10-19T00:33:47.115Z,607.00
2022-10-19T00:34:17.119Z,605.00
2022-10-19T00:34:47.141Z,604.00
2022-10-19T00:35:17.166Z,604.00
2022-10-19T00:35:47.183Z,605.00
2022-10-19T00:36:17.208Z,606.00
2022-10-19T00:36:47.226Z,606.00
2022-10-19T00:37:17.252Z,605.00
2022-10-19T00:37:47.270Z,605.00
2022-10-19T00:38:17.295Z,604.00
2022-10-19T00:38:47.314Z,604.00
2022-10-19T00:39:17.344Z,603.00
2022-10-19T00:39:47.387Z,605.00
2022-10-19T00:40:17.403Z,606.00
2022-10-19T00:40:47.425Z,604.00
2022-10-19T00:41:17.448Z,603.00
2022-10-19T00:41:47.492Z,603.00
2022-10-19T00:42:17.493Z,604.00
2022-10-19T00:42:47.560Z,610.00
2022-10-19T00:43:17.559Z,606.00
2022-10-19T00:43:47.579Z,602.00
2022-10-19T00:44:17.601Z,602.00
2022-10-19T00:44:47.631Z,600.00
2022-10-19T00:45:17.656Z,601.00
2022-10-19T00:45:47.676Z,602.00
2022-10-19T00:46:17.697Z,601.00
2022-10-19T00:46:47.716Z,602.00
2022-10-19T00:47:17.740Z,602.00
2022-10-19T00:47:47.830Z,602.00
2022-10-19T00:48:17.793Z,603.00
2022-10-19T00:49:18.012Z,604.00
2022-10-19T00:49:48.124Z,603.00
2022-10-19T00:50:18.235Z,602.00
2022-10-19T00:50:48.349Z,606.00
2022-10-19T00:51:18.459Z,605.00
2022-10-19T00:51:48.572Z,601.00
2022-10-19T00:52:18.687Z,601.00
2022-10-19T00:52:48.796Z,598.00
2022-10-19T00:53:18.914Z,604.00
2022-10-19T00:53:49.020Z,598.00
2022-10-19T00:54:19.137Z,599.00
2022-10-19T00:54:49.245Z,601.00
2022-10-19T00:55:19.358Z,600.00
2022-10-19T00:55:49.488Z,603.00
2022-10-19T00:56:19.470Z,605.00
2022-10-19T00:56:49.582Z,603.00
2022-10-19T00:57:19.725Z,606.00
2022-10-19T00:58:19.834Z,609.00
2022-10-19T00:58:49.853Z,606.00
2022-10-19T00:59:19.876Z,604.00
2022-10-19T00:59:49.898Z,606.00
2022-10-19T01:00:19.921Z,606.00
2022-10-19T01:00:50.039Z,604.00
2022-10-19T01:01:20.015Z,604.00
2022-10-19T01:01:50.044Z,608.00
2022-10-19T01:02:20.066Z,608.00
2022-10-19T01:02:50.081Z,605.00
2022-10-19T01:03:20.108Z,605.00
2022-10-19T01:03:50.130Z,606.00
2022-10-19T01:04:20.152Z,602.00
2022-10-19T01:04:50.170Z,603.00
2022-10-19T01:05:20.193Z,602.00
2022-10-19T01:05:50.214Z,601.00
2022-10-19T01:06:20.241Z,603.00
2022-10-19T01:07:20.366Z,601.00
2022-10-19T01:07:50.382Z,604.00
2022-10-19T01:08:20.402Z,602.00
2022-10-19T01:08:50.424Z,602.00
2022-10-19T01:09:20.442Z,602.00
2022-10-19T01:09:50.461Z,600.00
2022-10-19T01:10:20.481Z,602.00
2022-10-19T01:10:50.506Z,601.00
2022-10-19T01:11:20.530Z,600.00
2022-10-19T01:11:50.547Z,601.00
2022-10-19T01:12:20.566Z,598.00
2022-10-19T01:12:50.613Z,600.00
2022-10-19T01:13:20.618Z,601.00
2022-10-19T01:13:50.643Z,601.00
2022-10-19T01:14:20.662Z,599.00
2022-10-19T01:14:50.677Z,599.00
2022-10-19T01:15:20.697Z,599.00
2022-10-19T01:15:50.759Z,599.00
2022-10-19T01:16:20.759Z,598.00
2022-10-19T01:16:50.772Z,598.00
2022-10-19T01:17:20.797Z,596.00
2022-10-19T01:17:50.819Z,595.00
2022-10-19T01:18:20.847Z,596.00
2022-10-19T01:18:50.874Z,595.00
2022-10-19T01:19:20.891Z,596.00
2022-10-19T01:19:50.912Z,593.00
2022-10-19T01:20:20.934Z,594.00
2022-10-19T01:20:50.965Z,592.00
2022-10-19T01:21:20.980Z,593.00
2022-10-19T01:21:51.010Z,593.00
2022-10-19T01:22:21.018Z,592.00
2022-10-19T01:22:51.042Z,591.00
2022-10-19T01:23:21.087Z,593.00
2022-10-19T01:23:51.109Z,593.00
2022-10-19T01:24:21.129Z,593.00
2022-10-19T01:24:51.193Z,593.00
2022-10-19T01:25:21.189Z,592.00
2022-10-19T01:25:51.212Z,593.00
2022-10-19T01:26:21.236Z,593.00
2022-10-19T01:26:51.263Z,595.00
2022-10-19T01:27:21.288Z,593.00
2022-10-19T01:27:51.309Z,592.00
2022-10-19T01:28:21.369Z,591.00
2022-10-19T01:28:51.425Z,595.00
2022-10-19T01:29:21.425Z,594.00
2022-10-19T01:29:51.452Z,593.00
2022-10-19T01:30:21.475Z,596.00
2022-10-19T01:30:51.493Z,596.00
2022-10-19T01:31:21.514Z,601.00
2022-10-19T01:31:51.535Z,600.00
2022-10-19T01:32:21.557Z,600.00
2022-10-19T01:32:51.575Z,599.00
2022-10-19T01:33:21.609Z,597.00
2022-10-19T01:33:51.762Z,598.00
2022-10-19T01:34:21.665Z,598.00
2022-10-19T01:34:51.676Z,596.00
2022-10-19T01:35:21.706Z,595.00
2022-10-19T01:35:51.728Z,596.00
2022-10-19T01:36:21.751Z,595.00
2022-10-19T01:36:51.783Z,598.00
2022-10-19T01:37:21.827Z,598.00
2022-10-19T01:37:51.849Z,596.00
2022-10-19T01:38:21.871Z,600.00
2022-10-19T01:38:51.893Z,599.00
2022-10-19T01:39:21.917Z,600.00
2022-10-19T01:39:51.937Z,598.00
2022-10-19T01:40:21.958Z,599.00
2022-10-19T01:40:51.978Z,599.00
2022-10-19T01:41:22.002Z,599.00
2022-10-19T01:41:52.019Z,599.00
2022-10-19T01:42:22.062Z,597.00
2022-10-19T01:42:52.148Z,599.00
2022-10-19T01:43:22.196Z,599.00
2022-10-19T01:43:52.242Z,599.00
2022-10-19T01:44:22.244Z,597.00
2022-10-19T01:44:52.267Z,597.00
2022-10-19T01:45:22.294Z,599.00
2022-10-19T01:45:52.319Z,600.00
2022-10-19T01:46:22.347Z,600.00
2022-10-19T01:46:52.365Z,598.00
2022-10-19T01:47:22.410Z,596.00
2022-10-19T01:47:52.422Z,597.00
2022-10-19T01:48:22.537Z,596.00
2022-10-19T01:48:52.679Z,595.00
2022-10-19T01:49:22.668Z,594.00
2022-10-19T01:49:52.773Z,601.00
2022-10-19T01:50:22.890Z,599.00
2022-10-19T01:50:53.002Z,599.00
2022-10-19T01:51:23.107Z,596.00
2022-10-19T01:51:53.301Z,597.00
2022-10-19T01:52:23.284Z,597.00
2022-10-19T01:52:53.322Z,597.00
2022-10-19T01:53:23.328Z,598.00
2022-10-19T01:53:53.302Z,597.00
2022-10-19T01:54:23.411Z,595.00
2022-10-19T01:54:53.534Z,593.00
2022-10-19T01:55:23.548Z,594.00
2022-10-19T01:55:53.542Z,593.00
2022-10-19T01:56:23.650Z,596.00
2022-10-19T01:56:53.759Z,597.00
2022-10-19T01:57:23.995Z,593.00
2022-10-19T01:57:53.982Z,596.00
2022-10-19T01:58:24.006Z,593.00
2022-10-19T01:58:54.031Z,595.00
2022-10-19T01:59:24.079Z,593.00
2022-10-19T01:59:54.072Z,589.00
2022-10-19T02:00:24.092Z,592.00
2022-10-19T02:00:54.271Z,591.00
2022-10-19T02:01:24.112Z,590.00
2022-10-19T02:01:54.128Z,593.00
2022-10-19T02:02:24.153Z,594.00
2022-10-19T02:02:54.183Z,590.00
2022-10-19T02:03:24.200Z,590.00
2022-10-19T02:03:54.220Z,590.00
2022-10-19T02:04:24.241Z,593.00
2022-10-19T02:04:54.271Z,590.00
2022-10-19T02:05:24.292Z,590.00
2022-10-19T02:05:54.316Z,592.00
2022-10-19T02:06:24.344Z,591.00
2022-10-19T02:06:54.366Z,589.00
2022-10-19T02:07:24.401Z,591.00
2022-10-19T02:07:54.420Z,591.00
2022-10-19T02:08:24.445Z,588.00
2022-10-19T02:08:54.468Z,591.00
2022-10-19T02:09:24.489Z,592.00
2022-10-19T02:09:54.509Z,593.00
2022-10-19T02:10:24.534Z,589.00
2022-10-19T02:10:54.568Z,595.00
2022-10-19T02:11:24.588Z,592.00
2022-10-19T02:11:56.940Z,594.00
2022-10-19T02:12:24.657Z,590.00
2022-10-19T02:12:54.667Z,592.00
2022-10-19T02:13:24.759Z,594.00
2022-10-19T02:13:54.777Z,594.00
2022-10-19T02:14:24.796Z,591.00
2022-10-19T02:14:54.842Z,584.00
2022-10-19T02:15:24.854Z,587.00
2022-10-19T02:15:54.858Z,591.00
2022-10-19T02:16:24.878Z,585.00
2022-10-19T02:16:54.893Z,586.00
2022-10-19T02:17:24.930Z,583.00
2022-10-19T02:17:54.953Z,585.00
2022-10-19T02:18:24.969Z,585.00
2022-10-19T02:18:54.989Z,583.00
2022-10-19T02:19:25.095Z,586.00
2022-10-19T02:19:55.113Z,586.00
2022-10-19T02:20:25.136Z,587.00
2022-10-19T02:20:55.156Z,587.00
2022-10-19T02:21:25.175Z,586.00
2022-10-19T02:21:55.197Z,589.00
2022-10-19T02:22:25.243Z,590.00
2022-10-19T02:22:55.263Z,589.00
2022-10-19T02:23:25.282Z,591.00
2022-10-19T02:23:55.325Z,591.00
2022-10-19T02:24:25.349Z,590.00
2022-10-19T02:24:55.367Z,587.00
2022-10-19T02:25:25.398Z,584.00
2022-10-19T02:25:55.420Z,583.00
2022-10-19T02:26:25.441Z,583.00
2022-10-19T02:26:55.469Z,586.00
2022-10-19T02:27:25.512Z,587.00
2022-10-19T02:27:55.528Z,584.00
2022-10-19T02:28:55.614Z,583.00
2022-10-19T02:29:25.649Z,582.00
2022-10-19T02:29:55.671Z,582.00
2022-10-19T02:30:25.714Z,584.00
2022-10-19T02:30:55.712Z,583.00
2022-10-19T02:31:25.736Z,581.00
2022-10-19T02:31:55.756Z,581.00
2022-10-19T02:32:25.791Z,580.00
2022-10-19T02:32:55.815Z,584.00
2022-10-19T02:33:25.834Z,581.00
2022-10-19T02:33:55.850Z,580.00
2022-10-19T02:34:25.871Z,584.00
2022-10-19T02:34:55.883Z,596.00
2022-10-19T02:35:25.902Z,590.00
2022-10-19T02:35:55.923Z,590.00
2022-10-19T02:36:25.941Z,586.00
2022-10-19T02:36:55.961Z,586.00
2022-10-19T02:37:26.051Z,584.00
2022-10-19T02:37:56.053Z,582.00
2022-10-19T02:38:26.077Z,581.00
2022-10-19T02:38:56.094Z,579.00
2022-10-19T02:39:26.116Z,581.00
2022-10-19T02:39:56.137Z,578.00
2022-10-19T02:40:26.160Z,578.00
2022-10-19T02:40:56.179Z,581.00
2022-10-19T02:41:26.197Z,583.00
2022-10-19T02:41:56.214Z,584.00
2022-10-19T02:42:26.256Z,588.00
2022-10-19T02:42:56.314Z,587.00
2022-10-19T02:43:26.344Z,585.00
2022-10-19T02:43:56.370Z,583.00
2022-10-19T02:44:26.395Z,582.00
2022-10-19T02:44:56.415Z,582.00
2022-10-19T02:45:26.441Z,580.00
2022-10-19T02:45:56.483Z,579.00
2022-10-19T02:46:26.484Z,582.00
2022-10-19T02:46:56.514Z,583.00
2022-10-19T02:47:26.537Z,582.00
2022-10-19T02:47:56.543Z,580.00
2022-10-19T02:48:26.658Z,580.00
2022-10-19T02:48:56.770Z,577.00
2022-10-19T02:49:26.884Z,576.00
2022-10-19T02:49:56.999Z,578.00
2022-10-19T02:50:27.104Z,582.00
2022-10-19T02:50:57.214Z,581.00
2022-10-19T02:51:27.328Z,587.00
2022-10-19T02:51:57.439Z,582.00
2022-10-19T02:52:27.561Z,582.00
2022-10-19T02:52:57.566Z,590.00
2022-10-19T02:53:27.671Z,590.00
2022-10-19T02:53:59.925Z,588.00
2022-10-19T02:54:27.874Z,589.00
2022-10-19T02:54:57.985Z,593.00
2022-10-19T02:55:28.131Z,580.00
2022-10-19T02:55:58.223Z,579.00
2022-10-19T02:56:28.321Z,582.00
2022-10-19T02:56:58.429Z,581.00
2022-10-19T02:57:28.558Z,583.00
2022-10-19T02:57:58.556Z,582.00
2022-10-19T02:58:28.582Z,577.00
2022-10-19T02:58:58.608Z,587.00
2022-10-19T02:59:28.635Z,583.00
2022-10-19T02:59:58.649Z,579.00
2022-10-19T03:00:28.684Z,582.00
2022-10-19T03:00:58.762Z,578.00
2022-10-19T03:01:28.757Z,579.00
2022-10-19T03:01:58.775Z,580.00
2022-10-19T03:02:28.821Z,577.00
2022-10-19T03:02:58.847Z,582.00
2022-10-19T03:03:28.863Z,576.00
2022-10-19T03:03:58.897Z,577.00
2022-10-19T03:04:28.922Z,577.00
2022-10-19T03:04:58.943Z,576.00
2022-10-19T03:05:28.962Z,580.00
2022-10-19T03:05:58.981Z,581.00
2022-10-19T03:06:29.001Z,577.00
2022-10-19T03:06:59.021Z,581.00
2022-10-19T03:07:29.065Z,582.00
2022-10-19T03:07:59.086Z,572.00
2022-10-19T03:08:29.105Z,573.00
2022-10-19T03:08:59.131Z,578.00
2022-10-19T03:09:29.147Z,574.00
2022-10-19T03:09:59.168Z,578.00
2022-10-19T03:10:29.185Z,580.00
2022-10-19T03:10:59.206Z,577.00
2022-10-19T03:11:29.232Z,578.00
2022-10-19T03:11:59.253Z,579.00
2022-10-19T03:12:29.284Z,581.00
2022-10-19T03:12:59.313Z,583.00
2022-10-19T03:13:29.332Z,578.00
2022-10-19T03:13:59.359Z,577.00
2022-10-19T03:14:29.375Z,584.00
2022-10-19T03:14:59.394Z,575.00
2022-10-19T03:15:29.414Z,580.00
2022-10-19T03:15:59.432Z,580.00
2022-10-19T03:16:29.470Z,578.00
2022-10-19T03:16:59.461Z,580.00
2022-10-19T03:17:29.510Z,582.00
2022-10-19T03:17:59.528Z,571.00
2022-10-19T03:18:29.557Z,584.00
2022-10-19T03:18:59.574Z,584.00
2022-10-19T03:19:29.593Z,581.00
2022-10-19T03:19:59.621Z,586.00
2022-10-19T03:20:29.645Z,585.00
2022-10-19T03:20:59.665Z,582.00
2022-10-19T03:21:29.682Z,579.00
2022-10-19T03:21:59.717Z,581.00
2022-10-19T03:22:29.751Z,582.00
2022-10-19T03:22:59.778Z,581.00
2022-10-19T03:23:29.812Z,578.00
2022-10-19T03:23:59.851Z,583.00
2022-10-19T03:24:29.869Z,581.00
2022-10-19T03:24:59.888Z,583.00
2022-10-19T03:25:29.913Z,581.00
2022-10-19T03:25:59.941Z,583.00
2022-10-19T03:26:29.955Z,582.00
2022-10-19T03:26:59.974Z,584.00
2022-10-19T03:27:30.032Z,587.00
2022-10-19T03:28:00.051Z,582.00
2022-10-19T03:28:30.141Z,591.00
2022-10-19T03:29:00.207Z,588.00
2022-10-19T03:29:30.237Z,584.00
2022-10-19T03:30:00.256Z,584.00
2022-10-19T03:30:30.279Z,582.00
2022-10-19T03:31:00.303Z,580.00
2022-10-19T03:31:30.320Z,581.00
2022-10-19T03:32:00.367Z,587.00
2022-10-19T03:32:30.385Z,586.00
2022-10-19T03:33:00.418Z,581.00
2022-10-19T03:33:30.438Z,580.00
2022-10-19T03:34:00.455Z,581.00
2022-10-19T03:34:30.481Z,580.00
2022-10-19T03:35:00.501Z,582.00
2022-10-19T03:35:30.531Z,579.00
2022-10-19T03:36:00.554Z,583.00
2022-10-19T03:36:30.576Z,579.00
2022-10-19T03:37:00.596Z,586.00
2022-10-19T03:37:30.648Z,590.00
2022-10-19T03:38:00.689Z,584.00
2022-10-19T03:38:30.708Z,582.00
2022-10-19T03:39:00.743Z,583.00
2022-10-19T03:39:30.750Z,581.00
2022-10-19T03:40:00.771Z,582.00
2022-10-19T03:40:30.793Z,583.00
2022-10-19T03:41:00.818Z,579.00
2022-10-19T03:41:30.838Z,582.00
2022-10-19T03:42:00.862Z,577.00
2022-10-19T03:42:30.896Z,577.00
2022-10-19T03:43:00.913Z,578.00
2022-10-19T03:43:30.941Z,580.00
2022-10-19T03:44:31.054Z,574.00
2022-10-19T03:45:01.075Z,577.00
2022-10-19T03:45:31.097Z,572.00
2022-10-19T03:46:01.126Z,573.00
2022-10-19T03:46:31.145Z,573.00
2022-10-19T03:47:01.167Z,577.00
2022-10-19T03:47:31.477Z,578.00
2022-10-19T03:48:01.223Z,571.00
2022-10-19T03:48:31.337Z,574.00
2022-10-19T03:49:01.448Z,574.00
2022-10-19T03:49:32.348Z,573.00
2022-10-19T03:50:01.667Z,570.00
2022-10-19T03:50:31.778Z,577.00
2022-10-19T03:51:01.889Z,576.00
2022-10-19T03:51:32.002Z,577.00
2022-10-19T03:52:02.112Z,574.00
2022-10-19T03:52:32.241Z,573.00
2022-10-19T03:53:33.246Z,573.00
2022-10-19T03:54:02.351Z,573.00
2022-10-19T03:54:32.456Z,573.00
2022-10-19T03:55:02.565Z,571.00
2022-10-19T03:55:32.674Z,580.00
2022-10-19T03:56:02.787Z,578.00
2022-10-19T03:56:32.888Z,578.00
2022-10-19T03:57:03.000Z,579.00
2022-10-19T03:57:33.484Z,571.00
2022-10-19T03:58:03.200Z,571.00
2022-10-19T03:58:33.213Z,568.00
2022-10-19T03:59:03.234Z,573.00
2022-10-19T03:59:33.257Z,574.00
2022-10-19T04:00:03.276Z,569.00
2022-10-19T04:00:33.295Z,572.00
2022-10-19T04:01:03.414Z,571.00
2022-10-19T04:01:33.511Z,572.00
2022-10-19T04:02:03.426Z,571.00
2022-10-19T04:02:33.485Z,573.00
2022-10-19T04:03:03.477Z,572.00
2022-10-19T04:03:33.490Z,572.00
2022-10-19T04:04:03.532Z,573.00
2022-10-19T04:04:33.538Z,573.00
2022-10-19T04:05:03.564Z,572.00
2022-10-19T04:05:33.583Z,573.00
2022-10-19T04:06:03.604Z,575.00
2022-10-19T04:06:33.621Z,576.00
2022-10-19T04:07:03.661Z,574.00
2022-10-19T04:07:33.880Z,577.00
2022-10-19T04:08:03.790Z,578.00
2022-10-19T04:08:33.807Z,574.00
2022-10-19T04:09:03.845Z,576.00
2022-10-19T04:09:33.867Z,575.00
2022-10-19T04:10:03.887Z,578.00
2022-10-19T04:10:33.905Z,572.00
2022-10-19T04:11:03.920Z,573.00
2022-10-19T04:11:33.944Z,570.00
2022-10-19T04:12:03.989Z,569.00
2022-10-19T04:12:34.012Z,567.00
2022-10-19T04:13:04.039Z,571.00
2022-10-19T04:13:34.057Z,570.00
2022-10-19T04:14:04.156Z,573.00
2022-10-19T04:14:52.568Z,587.00
2022-10-19T04:15:04.202Z,576.00
2022-10-19T04:15:34.250Z,569.00
2022-10-19T04:16:04.256Z,576.00
2022-10-19T04:16:34.276Z,581.00
2022-10-19T04:17:04.289Z,582.00
2022-10-19T04:17:34.607Z,577.00
2022-10-19T04:18:04.350Z,586.00
2022-10-19T04:18:34.349Z,581.00
2022-10-19T04:19:04.523Z,580.00
2022-10-19T04:19:34.420Z,581.00
2022-10-19T04:20:04.443Z,580.00
2022-10-19T04:20:34.457Z,582.00
2022-10-19T04:21:04.474Z,576.00
2022-10-19T04:21:34.493Z,575.00
2022-10-19T04:22:04.513Z,583.00
2022-10-19T04:22:34.535Z,574.00
2022-10-19T04:23:04.619Z,573.00
2022-10-19T04:23:34.628Z,575.00
2022-10-19T04:24:04.651Z,578.00
2022-10-19T04:24:34.673Z,579.00
2022-10-19T04:25:04.736Z,580.00
2022-10-19T04:25:34.719Z,576.00
2022-10-19T04:26:04.737Z,578.00
2022-10-19T04:26:34.758Z,578.00
2022-10-19T04:27:04.784Z,578.00
2022-10-19T04:27:35.122Z,578.00
2022-10-19T04:28:04.799Z,579.00
2022-10-19T04:28:34.955Z,580.00
2022-10-19T04:29:04.969Z,582.00
2022-10-19T04:29:34.903Z,584.00
2022-10-19T04:30:04.921Z,583.00
2022-10-19T04:30:34.954Z,589.00
2022-10-19T04:31:04.994Z,593.00
2022-10-19T04:31:35.009Z,594.00
2022-10-19T04:32:05.040Z,590.00
2022-10-19T04:32:35.065Z,592.00
2022-10-19T04:33:05.091Z,595.00
2022-10-19T04:33:35.187Z,595.00
2022-10-19T04:34:05.121Z,591.00
2022-10-19T04:34:37.695Z,597.00
2022-10-19T04:35:05.224Z,595.00
2022-10-19T04:35:35.230Z,595.00
2022-10-19T04:36:05.248Z,613.00
2022-10-19T04:36:35.272Z,620.00
2022-10-19T04:37:05.300Z,627.00
2022-10-19T04:37:35.618Z,629.00
2022-10-19T04:38:05.360Z,632.00
2022-10-19T04:38:35.386Z,626.00
2022-10-19T04:39:05.398Z,625.00
2022-10-19T04:39:35.425Z,622.00
2022-10-19T04:40:05.446Z,625.00
2022-10-19T04:40:35.461Z,623.00
2022-10-19T04:41:05.476Z,618.00
2022-10-19T04:41:35.500Z,617.00
2022-10-19T04:42:05.515Z,619.00
2022-10-19T04:42:35.565Z,616.00
2022-10-19T04:43:05.581Z,616.00
2022-10-19T04:43:35.600Z,620.00
2022-10-19T04:44:05.618Z,620.00
2022-10-19T04:44:35.639Z,619.00
2022-10-19T04:45:05.665Z,617.00
2022-10-19T04:45:35.688Z,616.00
2022-10-19T04:46:05.710Z,613.00
2022-10-19T04:46:35.721Z,617.00
2022-10-19T04:47:05.743Z,620.00
2022-10-19T04:47:36.186Z,629.00
2022-10-19T04:48:05.817Z,631.00
2022-10-19T04:48:35.923Z,639.00
2022-10-19T04:49:06.071Z,648.00
2022-10-19T04:49:36.154Z,653.00
2022-10-19T04:50:06.265Z,655.00
2022-10-19T04:50:36.371Z,661.00
2022-10-19T04:51:06.477Z,657.00
2022-10-19T04:51:36.598Z,664.00
2022-10-19T04:52:06.716Z,665.00
2022-10-19T04:52:36.781Z,668.00
2022-10-19T04:53:06.761Z,670.00
2022-10-19T04:53:36.867Z,670.00
2022-10-19T04:54:06.987Z,673.00
2022-10-19T04:54:37.029Z,676.00
2022-10-19T04:55:07.032Z,678.00
2022-10-19T04:55:37.139Z,680.00
2022-10-19T04:56:07.246Z,681.00
2022-10-19T04:56:37.359Z,679.00
2022-10-19T04:57:07.463Z,680.00
2022-10-19T04:57:37.592Z,679.00
2022-10-19T04:58:07.609Z,674.00
2022-10-19T04:58:37.643Z,681.00
2022-10-19T04:59:07.663Z,680.00
2022-10-19T04:59:37.709Z,685.00
2022-10-19T05:00:07.767Z,693.00
2022-10-19T05:00:37.837Z,699.00
2022-10-19T05:01:07.956Z,697.00
2022-10-19T05:01:37.883Z,695.00
2022-10-19T05:02:07.910Z,696.00
2022-10-19T05:02:37.959Z,699.00
2022-10-19T05:03:07.973Z,693.00
2022-10-19T05:03:37.996Z,692.00
2022-10-19T05:04:08.020Z,696.00
2022-10-19T05:04:39.822Z,690.00
2022-10-19T05:05:08.060Z,687.00
2022-10-19T05:05:38.085Z,692.00
2022-10-19T05:06:08.119Z,701.00
2022-10-19T05:06:38.185Z,698.00
2022-10-19T05:07:08.239Z,698.00
2022-10-19T05:07:38.272Z,701.00
2022-10-19T05:08:08.310Z,702.00
2022-10-19T05:08:38.360Z,706.00
2022-10-19T05:09:08.393Z,705.00
2022-10-19T05:09:38.412Z,708.00
2022-10-19T05:10:08.431Z,707.00
2022-10-19T05:10:38.453Z,707.00
2022-10-19T05:11:08.472Z,706.00
2022-10-19T05:11:38.490Z,704.00
2022-10-19T05:12:08.511Z,706.00
2022-10-19T05:12:38.606Z,705.00
2022-10-19T05:13:08.626Z,704.00
2022-10-19T05:13:38.663Z,706.00
2022-10-19T05:14:08.733Z,703.00
2022-10-19T05:14:41.965Z,705.00
2022-10-19T05:15:08.825Z,706.00
2022-10-19T05:15:38.860Z,708.00
2022-10-19T05:16:08.967Z,712.00
2022-10-19T05:16:39.006Z,711.00
2022-10-19T05:17:09.042Z,719.00
2022-10-19T05:17:39.084Z,721.00
2022-10-19T05:18:09.103Z,720.00
2022-10-19T05:18:39.155Z,721.00
2022-10-19T05:19:09.200Z,715.00
2022-10-19T05:19:39.223Z,716.00
2022-10-19T05:20:09.266Z,717.00
2022-10-19T05:20:39.269Z,719.00
2022-10-19T05:21:09.283Z,720.00
2022-10-19T05:21:39.304Z,719.00
2022-10-19T05:22:09.322Z,724.00
2022-10-19T05:22:39.380Z,729.00
2022-10-19T05:23:09.398Z,729.00
2022-10-19T05:23:39.415Z,730.00
2022-10-19T05:24:09.435Z,727.00
2022-10-19T05:24:39.454Z,730.00
2022-10-19T05:25:09.479Z,735.00
2022-10-19T05:25:39.503Z,739.00
2022-10-19T05:26:09.531Z,736.00
2022-10-19T05:26:39.551Z,737.00
2022-10-19T05:27:09.568Z,740.00
2022-10-19T05:27:39.605Z,741.00
2022-10-19T05:28:09.630Z,743.00
2022-10-19T05:28:39.686Z,738.00
2022-10-19T05:29:09.764Z,731.00
2022-10-19T05:29:39.770Z,732.00
2022-10-19T05:30:09.787Z,736.00
2022-10-19T05:30:39.811Z,738.00
2022-10-19T05:31:09.833Z,746.00
2022-10-19T05:31:39.859Z,755.00
2022-10-19T05:32:09.875Z,765.00
2022-10-19T05:32:39.920Z,765.00
2022-10-19T05:33:09.941Z,765.00
2022-10-19T05:33:39.968Z,763.00
2022-10-19T05:34:09.982Z,760.00
2022-10-19T05:34:40.008Z,759.00
2022-10-19T05:35:10.022Z,756.00
2022-10-19T05:35:40.074Z,759.00
2022-10-19T05:36:10.067Z,757.00
2022-10-19T05:36:40.091Z,757.00
2022-10-19T05:37:10.127Z,754.00
2022-10-19T05:37:40.186Z,751.00
2022-10-19T05:38:10.207Z,755.00
2022-10-19T05:38:40.238Z,752.00
2022-10-19T05:39:10.271Z,753.00
2022-10-19T05:39:40.283Z,752.00
2022-10-19T05:40:10.309Z,748.00
2022-10-19T05:40:40.332Z,747.00
2022-10-19T05:41:10.362Z,747.00
2022-10-19T05:41:40.401Z,748.00
2022-10-19T05:42:10.434Z,745.00
2022-10-19T05:42:40.481Z,742.00
2022-10-19T05:43:10.499Z,736.00
2022-10-19T05:43:40.518Z,736.00
2022-10-19T05:44:10.532Z,733.00
2022-10-19T05:44:40.784Z,726.00
2022-10-19T05:45:10.545Z,725.00
2022-10-19T05:45:40.566Z,723.00
2022-10-19T05:46:10.579Z,720.00
2022-10-19T05:46:40.628Z,720.00
2022-10-19T05:47:10.650Z,715.00
2022-10-19T05:47:40.693Z,715.00
2022-10-19T05:48:10.682Z,713.00
2022-10-19T05:48:40.791Z,712.00
2022-10-19T05:49:10.907Z,717.00
2022-10-19T05:49:41.011Z,708.00
2022-10-19T05:50:11.120Z,710.00
2022-10-19T05:50:41.235Z,712.00
2022-10-19T05:51:11.249Z,711.00
2022-10-19T05:51:41.334Z,711.00
2022-10-19T05:52:11.450Z,711.00
2022-10-19T05:52:41.597Z,715.00
2022-10-19T05:53:11.576Z,716.00
2022-10-19T05:53:41.693Z,716.00
2022-10-19T05:54:11.794Z,722.00
2022-10-19T05:54:41.906Z,720.00
2022-10-19T05:55:12.015Z,717.00
2022-10-19T05:55:42.123Z,717.00
2022-10-19T05:56:12.233Z,718.00
2022-10-19T05:56:42.358Z,719.00
2022-10-19T05:57:12.451Z,718.00
2022-10-19T05:57:42.565Z,717.00
2022-10-19T05:58:12.586Z,719.00
2022-10-19T05:58:42.606Z,719.00
2022-10-19T05:59:12.639Z,720.00
2022-10-19T05:59:42.663Z,721.00
2022-10-19T06:00:12.693Z,720.00
2022-10-19T06:00:42.708Z,720.00
2022-10-19T06:01:12.732Z,720.00
2022-10-19T06:01:42.791Z,720.00
2022-10-19T06:02:12.835Z,718.00
2022-10-19T06:02:42.921Z,716.00
2022-10-19T06:03:12.945Z,719.00
2022-10-19T06:03:42.961Z,716.00
2022-10-19T06:04:13.032Z,719.00
2022-10-19T06:04:43.092Z,721.00
2022-10-19T06:05:13.112Z,719.00
2022-10-19T06:05:43.137Z,718.00
2022-10-19T06:06:13.200Z,713.00
2022-10-19T06:06:43.191Z,713.00
2022-10-19T06:07:13.361Z,715.00
2022-10-19T06:07:43.313Z,716.00
2022-10-19T06:08:13.345Z,716.00
2022-10-19T06:08:43.358Z,718.00
2022-10-19T06:09:13.381Z,719.00
2022-10-19T06:09:43.398Z,720.00
2022-10-19T06:10:13.415Z,718.00
2022-10-19T06:10:43.431Z,715.00
2022-10-19T06:11:13.450Z,711.00
2022-10-19T06:11:43.480Z,717.00
2022-10-19T06:12:15.794Z,710.00
2022-10-19T06:12:43.513Z,710.00
2022-10-19T06:13:13.534Z,705.00
2022-10-19T06:13:43.553Z,709.00
2022-10-19T06:14:13.586Z,708.00
2022-10-19T06:14:43.747Z,707.00
2022-10-19T06:15:13.638Z,714.00
2022-10-19T06:15:43.662Z,708.00
2022-10-19T06:16:13.677Z,720.00
2022-10-19T06:16:43.697Z,714.00
2022-10-19T06:17:13.743Z,712.00
2022-10-19T06:17:43.749Z,710.00